Time;durP1;ratioP1;P1;durP2;ratioP2;P2;SDS_P1;SDS_P2;PMS_P1;PMS_P2;Temp;Humidity;BMP_temperature;BMP_pressure;BME280_temperature;BME280_humidity;BME280_pressure;Samples;Min_cycle;Max_cycle;Signal;HPM_P1;HPM_P2
2023/03/04 00:00:28;;;;;;;;;;;;;;;26.01;48.31;96956.93;601049;236;66403;-74
2023/03/04 00:02:56;;;;;;;;;;;;;;;26.00;48.99;96958.02;600962;236;66493;-74
2023/03/04 00:05:23;;;;;;;;;;;;;;;26.00;48.97;96952.63;600985;236;63756;-75
2023/03/04 00:07:50;;;;;;;;;;;;;;;25.99;51.07;96951.84;600980;236;68654;-75
2023/03/04 00:10:18;;;;;;;;;;;;;;;25.99;48.39;96945.66;600996;236;68577;-74
2023/03/04 00:12:45;;;;;;;;;;;;;;;25.98;50.22;96944.08;601020;236;64899;-75
2023/03/04 00:15:13;;;;;;;;;;;;;;;25.98;48.60;96941.39;601005;236;68692;-75
2023/03/04 00:17:40;;;;;;;;;;;;;;;25.98;51.00;96946.77;600966;236;68657;-75
2023/03/04 00:20:08;;;;;;;;;;;;;;;25.97;47.07;96942.47;600975;236;65158;-74
2023/03/04 00:22:36;;;;;;;;;;;;;;;25.97;47.12;96939.78;601007;236;68914;-74
2023/03/04 00:25:04;;;;;;;;;;;;;;;25.97;50.47;96937.87;601070;236;65973;-75
2023/03/04 00:27:31;;;;;;;;;;;;;;;25.96;49.62;96936.30;600970;236;63710;-75
2023/03/04 00:29:58;;;;;;;;;;;;;;;25.96;48.63;96935.50;600974;236;68674;-74
2023/03/04 00:32:26;;;;;;;;;;;;;;;25.95;50.40;96928.54;600980;236;68901;-74
2023/03/04 00:34:54;;;;;;;;;;;;;;;25.94;49.01;96933.10;600979;236;65129;-74
2023/03/04 00:37:21;;;;;;;;;;;;;;;25.93;48.92;96930.73;601027;236;68687;-75
2023/03/04 00:39:50;;;;;;;;;;;;;;;25.93;49.99;96928.04;601005;236;69050;-75
2023/03/04 00:42:17;;;;;;;;;;;;;;;25.92;49.22;96921.86;600983;236;64984;-75
2023/03/04 00:44:45;;;;;;;;;;;;;;;25.91;50.30;96926.43;600959;236;68689;-74
2023/03/04 00:47:12;;;;;;;;;;;;;;;25.91;49.25;96926.43;600993;236;68548;-74
2023/03/04 00:49:40;;;;;;;;;;;;;;;25.90;48.49;96927.54;601004;236;64965;-74
2023/03/04 00:52:08;;;;;;;;;;;;;;;25.91;48.09;96928.33;600981;236;66155;-75
2023/03/04 00:54:35;;;;;;;;;;;;;;;25.89;47.78;96925.96;600988;236;66586;-74
2023/03/04 00:57:03;;;;;;;;;;;;;;;25.89;46.77;96925.14;600938;236;64925;-74
2023/03/04 00:59:30;;;;;;;;;;;;;;;25.89;50.01;96919.75;600983;236;68907;-74
2023/03/04 01:01:58;;;;;;;;;;;;;;;25.88;50.41;96927.05;600976;236;69276;-75
2023/03/04 01:04:25;;;;;;;;;;;;;;;25.88;49.67;96926.25;601028;236;64902;-74
2023/03/04 01:06:54;;;;;;;;;;;;;;;25.87;48.27;96921.98;600978;236;68648;-74
2023/03/04 01:09:22;;;;;;;;;;;;;;;25.85;49.84;96914.20;600967;236;66508;-75
2023/03/04 01:11:49;;;;;;;;;;;;;;;25.85;47.56;96918.79;600945;236;62899;-74
2023/03/04 01:14:17;;;;;;;;;;;;;;;25.84;48.45;96923.38;601012;236;69256;-74
2023/03/04 01:16:45;;;;;;;;;;;;;;;25.85;50.70;96919.58;601023;236;68508;-75
2023/03/04 01:19:12;;;;;;;;;;;;;;;25.83;51.36;96916.39;600980;236;65255;-74
2023/03/04 01:21:40;;;;;;;;;;;;;;;25.83;50.08;96926.34;600940;236;66482;-74
2023/03/04 01:24:07;;;;;;;;;;;;;;;25.82;51.04;96909.39;600965;236;66363;-74
2023/03/04 01:26:35;;;;;;;;;;;;;;;25.82;49.02;96919.38;600971;236;62863;-74
2023/03/04 01:29:02;;;;;;;;;;;;;;;25.81;48.84;96913.20;601019;236;66462;-74
2023/03/04 01:31:30;;;;;;;;;;;;;;;25.81;51.18;96917.77;600998;236;66404;-74
2023/03/04 01:33:57;;;;;;;;;;;;;;;25.80;50.55;96919.66;600970;236;62869;-75
2023/03/04 01:36:26;;;;;;;;;;;;;;;25.79;49.19;96923.47;601003;236;66557;-74
2023/03/04 01:38:54;;;;;;;;;;;;;;;25.79;50.82;96915.39;600831;236;68303;-74
2023/03/04 01:41:24;;;;;;;;;;;;;;;25.78;49.95;96905.73;594197;236;64978;-74
2023/03/04 01:43:51;;;;;;;;;;;;;;;25.78;51.38;96919.20;601035;236;68761;-74
2023/03/04 01:46:20;;;;;;;;;;;;;;;25.77;51.16;96916.80;600933;236;69784;-74
2023/03/04 01:48:48;;;;;;;;;;;;;;;25.77;49.91;96919.48;600969;236;65092;-74
2023/03/04 01:51:17;;;;;;;;;;;;;;;25.76;48.08;96920.59;600459;236;69626;-74
2023/03/04 01:53:45;;;;;;;;;;;;;;;25.75;48.01;96917.09;599959;236;66350;-75
2023/03/04 01:56:17;;;;;;;;;;;;;;;25.75;48.99;96911.70;600007;236;65105;-75
2023/03/04 01:58:45;;;;;;;;;;;;;;;25.74;48.32;96912.81;599958;236;66615;-75
2023/03/04 02:01:12;;;;;;;;;;;;;;;25.75;49.42;96913.60;599956;236;68484;-75
2023/03/04 02:03:40;;;;;;;;;;;;;;;25.74;51.70;96907.43;599950;236;64951;-74
2023/03/04 02:06:07;;;;;;;;;;;;;;;25.72;49.36;96904.23;599967;236;66320;-75
2023/03/04 02:08:35;;;;;;;;;;;;;;;25.72;48.51;96906.14;599985;236;68472;-74
2023/03/04 02:11:02;;;;;;;;;;;;;;;25.73;50.86;96908.54;599930;236;62798;-75
2023/03/04 02:13:30;;;;;;;;;;;;;;;25.71;49.77;96910.73;599921;236;68913;-75
2023/03/04 02:15:57;;;;;;;;;;;;;;;25.71;47.41;96912.63;599951;236;68497;-75
2023/03/04 02:18:25;;;;;;;;;;;;;;;25.69;50.19;96902.95;599922;236;63052;-75
2023/03/04 02:21:10;;;;;;;;;;;;;;;25.70;51.15;96909.16;600000;236;66458;-74
2023/03/04 02:23:56;;;;;;;;;;;;;;;25.69;48.44;96913.72;599996;236;68584;-75
2023/03/04 02:26:28;;;;;;;;;;;;;;;25.67;47.59;96915.11;599965;236;62530;-74
2023/03/04 02:28:57;;;;;;;;;;;;;;;25.67;48.78;96910.55;599921;236;68713;-75
2023/03/04 02:31:32;;;;;;;;;;;;;;;25.67;50.26;96913.24;599962;236;68590;-75
2023/03/04 02:34:01;;;;;;;;;;;;;;;25.66;49.30;96914.33;599941;236;62780;-74
2023/03/04 02:36:29;;;;;;;;;;;;;;;25.66;48.27;96918.92;599915;236;68656;-74
2023/03/04 02:38:58;;;;;;;;;;;;;;;25.66;47.94;96918.92;599994;236;68549;-74
2023/03/04 02:41:27;;;;;;;;;;;;;;;25.66;50.89;96905.46;599855;236;64991;-74
2023/03/04 02:43:55;;;;;;;;;;;;;;;25.64;48.66;96905.75;599935;236;69516;-75
2023/03/04 02:46:23;;;;;;;;;;;;;;;25.64;52.04;96908.44;599933;236;66886;-74
2023/03/04 02:48:51;;;;;;;;;;;;;;;25.63;51.04;96908.77;599953;236;63074;-75
2023/03/04 02:51:18;;;;;;;;;;;;;;;25.62;50.38;96907.97;600426;236;66527;-74
2023/03/04 02:53:46;;;;;;;;;;;;;;;25.60;49.25;96907.47;600953;236;68275;-75
2023/03/04 02:56:14;;;;;;;;;;;;;;;25.63;51.79;96911.45;600971;236;64914;-75
2023/03/04 02:58:41;;;;;;;;;;;;;;;25.61;49.42;96910.95;600954;236;68411;-75
2023/03/04 03:01:10;;;;;;;;;;;;;;;25.61;51.21;96913.64;600936;236;68875;-75
2023/03/04 03:03:37;;;;;;;;;;;;;;;25.60;48.87;96914.75;601035;236;65133;-75
2023/03/04 03:06:05;;;;;;;;;;;;;;;25.59;49.42;96918.53;601005;236;68621;-75
2023/03/04 03:08:32;;;;;;;;;;;;;;;25.59;49.98;96913.14;600901;236;66412;-75
2023/03/04 03:11:01;;;;;;;;;;;;;;;25.58;48.56;96909.66;600974;236;65564;-75
2023/03/04 03:13:29;;;;;;;;;;;;;;;25.58;50.30;96906.19;600951;236;66255;-72
2023/03/04 03:15:57;;;;;;;;;;;;;;;25.58;49.13;96911.56;600955;236;68595;-72
2023/03/04 03:18:24;;;;;;;;;;;;;;;25.57;49.94;96912.67;601038;236;64977;-72
2023/03/04 03:20:52;;;;;;;;;;;;;;;25.55;50.07;96898.72;600864;236;68322;-72
2023/03/04 03:23:19;;;;;;;;;;;;;;;25.55;49.21;96902.20;600958;236;68202;-72
2023/03/04 03:25:47;;;;;;;;;;;;;;;25.55;49.30;96898.72;600944;236;65075;-72
2023/03/04 03:28:14;;;;;;;;;;;;;;;25.54;50.22;96903.31;600966;236;66561;-73
2023/03/04 03:30:42;;;;;;;;;;;;;;;25.52;49.35;96902.81;601002;236;68566;-72
2023/03/04 03:33:09;;;;;;;;;;;;;;;25.54;47.95;96902.52;600971;236;62626;-72
2023/03/04 03:35:37;;;;;;;;;;;;;;;25.54;50.23;96907.91;600965;236;69158;-72
2023/03/04 03:38:05;;;;;;;;;;;;;;;25.53;50.53;96900.91;600954;236;68500;-73
2023/03/04 03:40:32;;;;;;;;;;;;;;;25.51;48.69;96908.48;600980;236;64877;-74
2023/03/04 03:43:00;;;;;;;;;;;;;;;25.51;50.21;96913.86;601063;236;68285;-74
2023/03/04 03:45:27;;;;;;;;;;;;;;;25.51;50.55;96903.09;600973;236;68434;-74
2023/03/04 03:47:55;;;;;;;;;;;;;;;25.50;49.85;96907.69;600961;236;64999;-74
2023/03/04 03:50:22;;;;;;;;;;;;;;;25.50;51.33;96906.91;600908;236;68775;-74
2023/03/04 03:52:50;;;;;;;;;;;;;;;25.50;51.43;96907.69;600984;236;66141;-74
2023/03/04 03:55:17;;;;;;;;;;;;;;;25.49;50.13;96910.70;601011;236;63161;-74
2023/03/04 03:57:45;;;;;;;;;;;;;;;25.47;49.54;96905.61;600990;236;68287;-74
2023/03/04 04:00:13;;;;;;;;;;;;;;;25.46;50.52;96902.12;600977;236;68266;-74
2023/03/04 04:02:40;;;;;;;;;;;;;;;25.46;49.59;96904.82;600961;236;64916;-74
2023/03/04 04:05:08;;;;;;;;;;;;;;;25.45;50.75;96908.62;600959;236;68364;-74
2023/03/04 04:07:36;;;;;;;;;;;;;;;25.45;50.62;96894.34;600969;236;66130;-74
2023/03/04 04:10:04;;;;;;;;;;;;;;;25.44;49.29;96907.02;601013;236;62632;-74
2023/03/04 04:12:32;;;;;;;;;;;;;;;25.44;51.67;96903.53;600955;236;68766;-72
2023/03/04 04:14:59;;;;;;;;;;;;;;;25.43;50.46;96902.73;600908;236;68854;-72
2023/03/04 04:17:26;;;;;;;;;;;;;;;25.42;49.26;96898.44;600959;236;65155;-72
2023/03/04 04:19:54;;;;;;;;;;;;;;;25.41;49.51;96896.86;600944;236;68713;-72
2023/03/04 04:22:21;;;;;;;;;;;;;;;25.41;48.64;96894.16;601013;236;68563;-72
2023/03/04 04:24:49;;;;;;;;;;;;;;;25.40;50.09;96897.97;600963;236;62781;-72
2023/03/04 04:27:16;;;;;;;;;;;;;;;25.40;50.23;96897.97;600967;236;66312;-72
2023/03/04 04:29:44;;;;;;;;;;;;;;;25.39;49.75;96896.36;600921;236;66423;-72
2023/03/04 04:32:12;;;;;;;;;;;;;;;25.39;50.12;96901.73;600997;236;62818;-72
2023/03/04 04:34:39;;;;;;;;;;;;;;;25.38;49.86;96897.47;601031;236;68445;-72
2023/03/04 04:37:07;;;;;;;;;;;;;;;25.39;50.00;96896.36;600979;236;66505;-72
2023/03/04 04:39:34;;;;;;;;;;;;;;;25.38;51.72;96894.77;600974;236;62895;-72
2023/03/04 04:42:02;;;;;;;;;;;;;;;25.37;50.46;96895.06;600944;236;68902;-73
2023/03/04 04:44:29;;;;;;;;;;;;;;;25.37;48.57;96892.38;600987;236;68564;-72
2023/03/04 04:46:57;;;;;;;;;;;;;;;25.36;50.39;96896.97;601027;236;64869;-72
2023/03/04 04:49:24;;;;;;;;;;;;;;;25.35;50.42;96889.21;600981;236;68621;-73
2023/03/04 04:51:52;;;;;;;;;;;;;;;25.35;49.49;96892.70;600217;236;68416;-73
2023/03/04 04:54:19;;;;;;;;;;;;;;;25.33;48.59;96894.88;599985;236;64946;-72
2023/03/04 04:56:47;;;;;;;;;;;;;;;25.34;51.13;96901.84;599946;236;68684;-72
2023/03/04 04:59:14;;;;;;;;;;;;;;;25.32;49.26;96901.38;600007;236;68570;-72
2023/03/04 05:01:42;;;;;;;;;;;;;;;25.32;48.24;96908.62;600012;236;66410;-72
2023/03/04 05:04:09;;;;;;;;;;;;;;;25.31;50.26;96915.89;599940;236;66525;-74
2023/03/04 05:06:37;;;;;;;;;;;;;;;25.30;48.26;96919.70;599967;236;68274;-74
2023/03/04 05:09:05;;;;;;;;;;;;;;;25.31;50.15;96915.89;599949;236;64938;-74
2023/03/04 05:11:32;;;;;;;;;;;;;;;25.31;50.22;96921.28;599928;236;66508;-74
2023/03/04 05:14:00;;;;;;;;;;;;;;;25.32;50.22;96927.45;600017;236;66397;-74
2023/03/04 05:16:27;;;;;;;;;;;;;;;25.30;51.22;96927.77;599974;236;62910;-74
2023/03/04 05:18:55;;;;;;;;;;;;;;;25.29;51.12;96925.36;599946;236;66449;-74
2023/03/04 05:21:22;;;;;;;;;;;;;;;25.29;51.23;96922.67;599985;236;68221;-74
2023/03/04 05:23:51;;;;;;;;;;;;;;;25.27;51.20;96928.38;599812;236;64872;-74
2023/03/04 05:26:18;;;;;;;;;;;;;;;25.26;49.02;96929.45;599990;236;68617;-74
2023/03/04 05:28:46;;;;;;;;;;;;;;;25.25;49.21;96928.66;599951;236;66784;-74
2023/03/04 05:31:14;;;;;;;;;;;;;;;25.25;49.78;96922.48;599456;236;62896;-74
2023/03/04 05:33:41;;;;;;;;;;;;;;;25.25;51.01;96927.87;598654;236;68773;-74
2023/03/04 05:36:09;;;;;;;;;;;;;;;25.24;51.04;96935.14;598700;236;68471;-74
2023/03/04 05:38:36;;;;;;;;;;;;;;;25.23;49.29;96928.16;598708;236;65731;-74
2023/03/04 05:41:05;;;;;;;;;;;;;;;25.22;49.42;96929.27;598659;236;69863;-74
2023/03/04 05:43:37;;;;;;;;;;;;;;;25.22;50.13;96931.95;599885;236;66419;-74
2023/03/04 05:46:04;;;;;;;;;;;;;;;25.23;52.01;96927.36;599976;236;65226;-74
2023/03/04 05:48:32;;;;;;;;;;;;;;;25.21;49.38;96926.89;599955;236;68391;-74
2023/03/04 05:51:01;;;;;;;;;;;;;;;25.20;50.72;96930.66;599929;236;68514;-74
2023/03/04 05:53:28;;;;;;;;;;;;;;;25.20;49.93;96925.28;599968;236;64919;-74
2023/03/04 05:55:58;;;;;;;;;;;;;;;25.20;49.96;96925.28;599949;236;69097;-74
2023/03/04 05:58:26;;;;;;;;;;;;;;;25.19;50.11;96926.39;599941;236;66653;-74
2023/03/04 06:00:53;;;;;;;;;;;;;;;25.18;49.74;96927.46;599957;236;65224;-74
2023/03/04 06:03:22;;;;;;;;;;;;;;;25.17;49.09;96931.27;599930;236;68766;-74
2023/03/04 06:05:50;;;;;;;;;;;;;;;25.17;49.90;96936.64;599945;236;68698;-74
2023/03/04 06:08:17;;;;;;;;;;;;;;;25.16;50.20;96930.47;599956;236;62843;-74
2023/03/04 06:10:45;;;;;;;;;;;;;;;25.16;49.38;96937.75;599969;236;66490;-74
2023/03/04 06:13:12;;;;;;;;;;;;;;;25.15;49.87;96941.52;599921;236;68643;-74
2023/03/04 06:15:40;;;;;;;;;;;;;;;25.15;51.36;96941.52;599965;236;64922;-72
2023/03/04 06:18:07;;;;;;;;;;;;;;;25.13;49.45;96941.80;599959;236;68482;-72
2023/03/04 06:20:35;;;;;;;;;;;;;;;25.14;49.89;96945.28;599941;236;68804;-74
2023/03/04 06:23:03;;;;;;;;;;;;;;;25.13;50.14;96946.39;599938;236;64627;-74
2023/03/04 06:25:31;;;;;;;;;;;;;;;25.13;53.09;96949.08;599902;236;68927;-74
2023/03/04 06:27:58;;;;;;;;;;;;;;;25.12;50.50;96944.77;599942;236;68410;-74
2023/03/04 06:30:26;;;;;;;;;;;;;;;25.10;48.65;96945.09;599940;236;62847;-74
2023/03/04 06:32:53;;;;;;;;;;;;;;;25.12;49.99;96947.47;599941;236;68687;-74
2023/03/04 06:35:21;;;;;;;;;;;;;;;25.11;49.98;96953.95;599987;236;68377;-73
2023/03/04 06:37:49;;;;;;;;;;;;;;;25.10;51.41;96953.16;599943;236;62782;-72
2023/03/04 06:40:17;;;;;;;;;;;;;;;25.10;50.07;96952.34;599956;236;68691;-72
2023/03/04 06:42:45;;;;;;;;;;;;;;;25.10;50.11;96946.95;599942;236;68839;-72
2023/03/04 06:45:13;;;;;;;;;;;;;;;25.09;51.14;96951.55;599966;236;64865;-72
2023/03/04 06:47:40;;;;;;;;;;;;;;;25.09;50.60;96953.44;599927;236;66428;-73
2023/03/04 06:50:08;;;;;;;;;;;;;;;25.09;48.59;96950.75;599923;236;68519;-73
2023/03/04 06:52:36;;;;;;;;;;;;;;;25.09;51.84;96945.37;595133;238;65094;-73
2023/03/04 06:55:03;;;;;;;;;;;;;;;25.08;51.19;96949.97;595128;238;68655;-73
2023/03/04 06:57:31;;;;;;;;;;;;;;;25.10;51.60;96953.16;595057;238;68612;-72
2023/03/04 07:00:02;;;;;;;;;;;;;;;25.09;51.29;96951.55;595133;238;65209;-72
2023/03/04 07:02:29;;;;;;;;;;;;;;;25.11;51.80;96953.95;594870;238;66130;-72
2023/03/04 07:04:57;;;;;;;;;;;;;;;25.11;50.72;96943.19;594333;238;66408;-72
2023/03/04 07:07:25;;;;;;;;;;;;;;;25.12;51.55;96944.77;595105;238;62835;-73
2023/03/04 07:09:52;;;;;;;;;;;;;;;25.12;50.05;96948.25;595181;238;68841;-73
2023/03/04 07:12:20;;;;;;;;;;;;;;;25.13;50.74;96946.39;594997;238;68596;-72
2023/03/04 07:14:47;;;;;;;;;;;;;;;25.14;51.35;96950.66;595111;238;65333;-72
2023/03/04 07:17:18;;;;;;;;;;;;;;;25.14;50.32;96956.03;595117;238;70618;-72
2023/03/04 07:19:45;;;;;;;;;;;;;;;25.16;51.25;96956.57;595131;238;68532;-72
2023/03/04 07:22:13;;;;;;;;;;;;;;;25.17;52.64;96950.88;595139;238;64766;-72
2023/03/04 07:24:41;;;;;;;;;;;;;;;25.17;52.22;96948.19;595135;238;68686;-72
2023/03/04 07:27:08;;;;;;;;;;;;;;;25.19;52.55;96948.69;594980;238;66403;-72
2023/03/04 07:29:36;;;;;;;;;;;;;;;25.19;52.24;96943.31;594826;238;64937;-72
2023/03/04 07:32:05;;;;;;;;;;;;;;;25.22;51.37;96941.92;595115;238;68722;-72
2023/03/04 07:34:32;;;;;;;;;;;;;;;25.21;50.54;96938.44;594214;238;66183;-72
2023/03/04 07:37:00;;;;;;;;;;;;;;;25.22;51.53;96939.23;595112;238;62746;-72
2023/03/04 07:39:27;;;;;;;;;;;;;;;25.23;52.26;96935.44;595102;238;66536;-72
2023/03/04 07:41:56;;;;;;;;;;;;;;;25.24;51.37;96937.84;595127;238;66404;-72
2023/03/04 07:44:24;;;;;;;;;;;;;;;25.25;51.92;96933.25;595106;238;63829;-72
2023/03/04 07:46:56;;;;;;;;;;;;;;;25.27;53.69;96935.65;594986;238;68637;-72
2023/03/04 07:49:21;;;;;;;;;;;;;;;25.28;53.54;96938.02;595066;238;67999;-72
2023/03/04 07:51:49;;;;;;;;;;;;;;;25.27;49.67;96936.44;598287;234;65321;-72
2023/03/04 07:54:19;;;;;;;;;;;;;;;25.29;52.49;96939.63;599547;236;68410;-72
2023/03/04 07:56:45;;;;;;;;;;;;;;;25.29;50.91;96931.56;599904;236;68700;-72
2023/03/04 07:59:13;;;;;;;;;;;;;;;25.31;52.90;96937.42;599952;236;62889;-72
2023/03/04 08:01:40;;;;;;;;;;;;;;;25.32;51.95;96928.27;599979;236;66187;-72
2023/03/04 08:04:09;;;;;;;;;;;;;;;25.34;52.25;96936.81;599952;236;66167;-71
2023/03/04 08:06:36;;;;;;;;;;;;;;;25.35;50.58;96932.25;594169;236;64905;-72
2023/03/04 08:09:06;;;;;;;;;;;;;;;25.36;50.04;96931.14;599837;236;68270;-72
2023/03/04 08:11:36;;;;;;;;;;;;;;;25.38;49.89;96937.03;599947;236;68502;-72
2023/03/04 08:14:04;;;;;;;;;;;;;;;25.39;52.68;96933.23;599662;236;64917;-72
2023/03/04 08:16:31;;;;;;;;;;;;;;;25.39;50.02;96934.02;599991;236;68570;-72
2023/03/04 08:19:01;;;;;;;;;;;;;;;25.41;50.22;96931.83;599696;236;68562;-72
2023/03/04 08:21:28;;;;;;;;;;;;;;;25.42;49.59;96933.41;599021;236;64905;-72
2023/03/04 08:23:58;;;;;;;;;;;;;;;25.44;50.45;96930.43;599928;236;68897;-72
2023/03/04 08:26:28;;;;;;;;;;;;;;;25.44;50.78;96925.84;599908;236;68766;-72
2023/03/04 08:28:56;;;;;;;;;;;;;;;25.45;50.10;96932.83;599993;236;64905;-73
2023/03/04 08:31:24;;;;;;;;;;;;;;;25.47;50.82;96927.92;599939;236;66497;-73
2023/03/04 08:33:55;;;;;;;;;;;;;;;25.48;49.67;96920.64;599964;236;68714;-73
2023/03/04 08:36:22;;;;;;;;;;;;;;;25.50;50.08;96921.14;599976;236;64899;-73
2023/03/04 08:38:50;;;;;;;;;;;;;;;25.52;48.29;96921.64;600011;236;68684;-73
2023/03/04 08:41:17;;;;;;;;;;;;;;;25.53;50.00;96914.36;600002;236;68520;-73
2023/03/04 08:43:50;;;;;;;;;;;;;;;25.55;50.91;96920.25;599708;236;46360;-73
2023/03/04 08:46:17;;;;;;;;;;;;;;;25.54;50.67;96911.38;599955;236;66465;-73
2023/03/04 08:48:46;;;;;;;;;;;;;;;25.56;48.90;96917.23;599930;236;66479;-74
2023/03/04 08:51:17;;;;;;;;;;;;;;;25.56;48.18;96906.47;599892;236;65054;-74
2023/03/04 08:53:45;;;;;;;;;;;;;;;25.59;47.26;96902.38;594174;236;70160;-74
2023/03/04 08:56:13;;;;;;;;;;;;;;;25.59;49.61;96902.38;599929;236;66223;-74
2023/03/04 08:58:47;;;;;;;;;;;;;;;25.60;49.81;96904.78;599973;236;65034;-74
2023/03/04 09:01:16;;;;;;;;;;;;;;;25.61;48.79;96897.50;600010;236;54059;-74
2023/03/04 09:03:45;;;;;;;;;;;;;;;25.62;50.21;96894.52;599793;236;68382;-74
2023/03/04 09:06:16;;;;;;;;;;;;;;;25.63;51.24;96889.92;599967;236;64927;-73
2023/03/04 09:08:45;;;;;;;;;;;;;;;25.63;49.81;96896.09;599830;236;48719;-74
2023/03/04 09:11:16;;;;;;;;;;;;;;;25.64;49.59;96886.91;599906;236;68927;-75
2023/03/04 09:13:50;;;;;;;;;;;;;;;25.64;49.43;96881.53;599958;236;65067;-75
2023/03/04 09:16:17;;;;;;;;;;;;;;;25.65;48.64;96885.05;599984;236;66602;-75
2023/03/04 09:18:50;;;;;;;;;;;;;;;25.66;49.16;96883.94;599934;236;68537;-75
2023/03/04 09:21:14;;;;;;;;;;;;;;;25.66;49.43;96882.03;599834;236;63666;-75
2023/03/04 09:23:42;;;;;;;;;;;;;;;25.66;49.46;96873.17;599966;236;68613;-75
2023/03/04 09:26:16;;;;;;;;;;;;;;;25.68;47.92;96876.36;599959;236;66396;-74
2023/03/04 09:28:45;;;;;;;;;;;;;;;25.68;48.86;96873.66;599967;236;65423;-75
2023/03/04 09:31:14;;;;;;;;;;;;;;;25.66;46.33;96871.27;599854;236;68364;-73
2023/03/04 09:33:42;;;;;;;;;;;;;;;25.67;48.35;96867.49;599925;236;68481;-73
2023/03/04 09:36:11;;;;;;;;;;;;;;;25.69;49.01;96867.17;599981;236;64890;-73
2023/03/04 09:38:38;;;;;;;;;;;;;;;25.69;49.57;96872.55;599947;236;66813;-73
2023/03/04 09:41:08;;;;;;;;;;;;;;;25.71;47.28;96873.05;599949;236;68551;-73
2023/03/04 09:43:37;;;;;;;;;;;;;;;25.70;50.99;96860.70;599484;236;64940;-73
2023/03/04 09:46:05;;;;;;;;;;;;;;;25.70;47.15;96858.02;599947;236;68688;-73
2023/03/04 09:48:34;;;;;;;;;;;;;;;25.71;49.49;96856.91;599870;236;66487;-73
2023/03/04 09:51:03;;;;;;;;;;;;;;;25.70;49.93;96855.33;599816;236;62803;-73
2023/03/04 09:53:44;;;;;;;;;;;;;;;25.70;47.85;96858.02;600676;236;66393;-74
2023/03/04 09:56:12;;;;;;;;;;;;;;;25.71;47.91;96856.11;600793;236;68644;-73
2023/03/04 09:58:58;;;;;;;;;;;;;;;25.72;49.15;96853.09;600950;236;64973;-73
2023/03/04 10:01:36;;;;;;;;;;;;;;;25.72;48.44;96855.80;600966;236;68815;-73
2023/03/04 10:04:06;;;;;;;;;;;;;;;25.71;49.45;96848.83;597995;236;68675;-73
2023/03/04 10:06:34;;;;;;;;;;;;;;;25.72;48.31;96846.92;600650;236;64735;-73
2023/03/04 10:09:02;;;;;;;;;;;;;;;25.71;49.23;96840.75;600965;236;68720;-73
2023/03/04 10:11:40;;;;;;;;;;;;;;;25.72;49.64;96844.23;600945;236;68499;-73
2023/03/04 10:14:10;;;;;;;;;;;;;;;25.72;49.02;96839.64;600733;236;64924;-73
2023/03/04 10:16:45;;;;;;;;;;;;;;;25.73;49.75;96835.05;600977;236;68846;-73
2023/03/04 10:19:17;;;;;;;;;;;;;;;25.72;48.79;96838.85;600719;236;66260;-73
2023/03/04 10:21:48;;;;;;;;;;;;;;;25.72;48.76;96839.64;600990;236;64963;-73
2023/03/04 10:24:23;;;;;;;;;;;;;;;25.72;46.23;96833.47;600961;236;68724;-73
2023/03/04 10:26:52;;;;;;;;;;;;;;;25.73;47.32;96825.10;600946;236;69064;-73
2023/03/04 10:29:21;;;;;;;;;;;;;;;25.75;48.59;96819.39;600965;236;65012;-73
2023/03/04 10:31:54;;;;;;;;;;;;;;;25.73;49.71;96814.34;600959;236;48882;-72
2023/03/04 10:34:22;;;;;;;;;;;;;;;25.73;49.32;96813.52;600937;236;68356;-72
2023/03/04 10:37:06;;;;;;;;;;;;;;;25.73;47.60;96802.75;600795;236;65309;-73
2023/03/04 10:39:38;;;;;;;;;;;;;;;25.75;49.27;96805.94;600901;236;66469;-73
2023/03/04 10:42:19;;;;;;;;;;;;;;;25.74;48.46;96794.38;600851;236;68513;-73
2023/03/04 10:44:54;;;;;;;;;;;;;;;25.74;48.73;96789.00;600942;236;63884;-73
2023/03/04 10:47:25;;;;;;;;;;;;;;;25.73;47.49;96787.42;600968;236;68338;-73
2023/03/04 10:49:54;;;;;;;;;;;;;;;25.73;47.52;96786.60;600903;236;66535;-72
2023/03/04 10:52:30;;;;;;;;;;;;;;;25.72;48.78;96780.43;600238;236;62850;-72
2023/03/04 10:54:59;;;;;;;;;;;;;;;25.74;48.98;96783.62;599896;236;68951;-73
2023/03/04 10:57:28;;;;;;;;;;;;;;;25.73;48.97;96773.97;599811;236;68441;-73
2023/03/04 10:59:57;;;;;;;;;;;;;;;25.74;48.10;96761.30;599939;236;64905;-73
2023/03/04 11:02:26;;;;;;;;;;;;;;;25.73;49.63;96770.45;599943;236;69580;-73
2023/03/04 11:04:55;;;;;;;;;;;;;;;25.72;47.51;96763.49;600010;236;68505;-72
2023/03/04 11:07:24;;;;;;;;;;;;;;;25.73;49.17;96752.44;599932;236;62767;-72
2023/03/04 11:09:52;;;;;;;;;;;;;;;25.73;47.20;96752.44;599857;236;68546;-72
2023/03/04 11:12:21;;;;;;;;;;;;;;;25.74;51.01;96743.25;599964;236;66693;-72
2023/03/04 11:14:51;;;;;;;;;;;;;;;25.73;48.30;96744.36;599767;236;45979;-72
2023/03/04 11:17:21;;;;;;;;;;;;;;;25.73;49.75;96735.47;599934;236;66513;-72
2023/03/04 11:19:50;;;;;;;;;;;;;;;25.74;49.22;96737.07;599957;236;68675;-72
2023/03/04 11:22:19;;;;;;;;;;;;;;;25.74;50.26;96731.69;599885;236;62786;-73
2023/03/04 11:24:47;;;;;;;;;;;;;;;25.73;47.44;96735.47;599948;236;66578;-74
2023/03/04 11:27:16;;;;;;;;;;;;;;;25.72;48.79;96721.22;599934;236;66417;-74
2023/03/04 11:29:58;;;;;;;;;;;;;;;25.73;48.57;96713.94;599953;236;65034;-74
2023/03/04 11:32:29;;;;;;;;;;;;;;;25.73;49.46;96712.06;599948;236;68714;-74
2023/03/04 11:35:00;;;;;;;;;;;;;;;25.74;48.92;96716.33;599989;236;68451;-75
2023/03/04 11:37:47;;;;;;;;;;;;;;;25.73;48.16;96711.24;599106;236;64959;-74
2023/03/04 11:40:16;;;;;;;;;;;;;;;25.73;48.34;96700.48;590660;239;69689;-74
2023/03/04 11:43:01;;;;;;;;;;;;;;;25.74;49.35;96707.47;590657;240;66868;-74
2023/03/04 11:45:33;;;;;;;;;;;;;;;25.72;48.06;96705.08;595077;236;63010;-71
2023/03/04 11:48:11;;;;;;;;;;;;;;;25.73;49.86;96697.78;599649;236;66627;-72
2023/03/04 11:50:44;;;;;;;;;;;;;;;25.72;47.37;96693.52;599137;236;66501;-72
2023/03/04 11:53:17;;;;;;;;;;;;;;;25.73;48.49;96692.41;599449;236;65007;-73
2023/03/04 11:55:49;;;;;;;;;;;;;;;25.73;49.58;96695.91;599966;236;66460;-73
2023/03/04 11:58:21;;;;;;;;;;;;;;;25.72;49.12;96685.44;599090;236;68414;-72
2023/03/04 12:00:56;;;;;;;;;;;;;;;25.72;47.91;96677.37;600012;236;64865;-73
2023/03/04 12:03:42;;;;;;;;;;;;;;;25.72;48.10;96678.16;599987;236;65956;-72
2023/03/04 12:06:17;;;;;;;;;;;;;;;25.71;49.28;96676.58;599969;236;68381;-72
2023/03/04 12:08:55;;;;;;;;;;;;;;;25.72;48.31;96680.85;600025;236;62818;-72
2023/03/04 12:11:27;;;;;;;;;;;;;;;25.72;50.53;96675.47;599763;236;68651;-73
2023/03/04 12:14:11;;;;;;;;;;;;;;;25.71;48.40;96671.20;599012;236;68566;-72
2023/03/04 12:16:56;;;;;;;;;;;;;;;25.71;49.62;96668.50;599777;236;62775;-72
2023/03/04 12:19:28;;;;;;;;;;;;;;;25.71;48.33;96660.44;599989;236;68419;-72
2023/03/04 12:22:05;;;;;;;;;;;;;;;25.72;47.79;96662.02;599983;236;68267;-72
2023/03/04 12:24:43;;;;;;;;;;;;;;;25.72;47.73;96656.63;599943;236;65373;-73
2023/03/04 12:27:24;;;;;;;;;;;;;;;25.71;49.71;96657.74;599804;236;68708;-74
2023/03/04 12:29:53;;;;;;;;;;;;;;;25.71;50.19;96655.05;600008;236;68494;-71
2023/03/04 12:32:22;;;;;;;;;;;;;;;25.71;50.73;96655.05;599841;236;65207;-74
2023/03/04 12:35:00;;;;;;;;;;;;;;;25.71;48.17;96646.98;599933;236;68695;-73
2023/03/04 12:37:32;;;;;;;;;;;;;;;25.72;48.37;96656.63;599971;236;68481;-74
2023/03/04 12:40:07;;;;;;;;;;;;;;;25.71;49.78;96652.36;599725;236;64905;-73
2023/03/04 12:42:45;;;;;;;;;;;;;;;25.72;52.14;96647.77;600020;236;68730;-73
2023/03/04 12:45:16;;;;;;;;;;;;;;;25.72;49.90;96645.08;599704;236;66113;-74
2023/03/04 12:47:51;;;;;;;;;;;;;;;25.71;49.57;96646.19;599873;236;65005;-74
2023/03/04 12:50:37;;;;;;;;;;;;;;;25.71;50.17;96644.28;599559;236;66468;-74
2023/03/04 12:53:18;;;;;;;;;;;;;;;25.70;49.85;96645.40;599940;234;68297;-74
2023/03/04 12:55:46;;;;;;;;;;;;;;;25.69;48.77;96638.41;599966;236;62975;-74
2023/03/04 12:58:15;;;;;;;;;;;;;;;25.69;48.94;96631.13;599961;236;66396;-74